Time;durP1;ratioP1;P1;durP2;ratioP2;P2;SDS_P1;SDS_P2;PMS_P1;PMS_P2;Temp;Humidity;BMP_temperature;BMP_pressure;BME280_temperature;BME280_humidity;BME280_pressure;Samples;Min_cycle;Max_cycle;Signal;HPM_P1;HPM_P2
2022/10/12 00:00:30;;;;;;;13.50;7.00;;;;;;;7.83;96.45;102544.28;10383555;28;20068;-71
2022/10/12 00:05:30;;;;;;;22.58;6.72;;;;;;;7.66;95.98;102541.25;10383343;28;20038;-71
2022/10/12 00:10:31;;;;;;;15.93;7.95;;;;;;;7.50;95.82;102549.03;10383370;28;20057;-71
2022/10/12 00:15:34;;;;;;;14.95;9.10;;;;;;;7.38;96.16;102540.19;10381878;28;20358;-71
2022/10/12 00:20:35;;;;;;;8.15;6.03;;;;;;;7.24;95.78;102532.44;10380758;28;20474;-71
2022/10/12 00:25:39;;;;;;;12.45;7.65;;;;;;;7.14;95.97;102536.94;10381275;28;20041;-71
2022/10/12 00:30:40;;;;;;;14.35;6.82;;;;;;;7.03;95.59;102529.81;10381254;28;20034;-71
2022/10/12 00:35:40;;;;;;;13.98;6.88;;;;;;;6.91;96.05;102536.28;10381300;28;20045;-71
2022/10/12 00:40:41;;;;;;;21.40;8.90;;;;;;;6.83;95.74;102536.06;10380944;28;20157;-71
2022/10/12 00:45:41;;;;;;;7.90;6.82;;;;;;;6.92;96.70;102543.34;10380321;28;20041;-71
2022/10/12 00:50:41;;;;;;;13.60;7.47;;;;;;;6.87;96.42;102533.00;10381807;28;20113;-71
2022/10/12 00:55:59;;;;;;;8.77;7.40;;;;;;;6.83;97.05;102525.28;10379263;28;20459;-71
2022/10/12 01:01:00;;;;;;;17.88;7.95;;;;;;;6.75;95.74;102528.66;10380447;28;20038;-71
2022/10/12 01:06:01;;;;;;;10.23;7.75;;;;;;;6.65;95.46;102525.91;10379476;28;20496;-70
2022/10/12 01:11:01;;;;;;;17.50;6.72;;;;;;;6.59;95.93;102526.44;10381977;28;20049;-71
2022/10/12 01:16:30;;;;;;;15.38;8.05;;;;;;;6.50;95.27;102524.53;10380556;28;20390;-71
2022/10/12 01:21:30;;;;;;;13.95;7.57;;;;;;;6.42;96.13;102518.97;10376328;28;20046;-71
2022/10/12 01:26:57;;;;;;;16.00;7.05;;;;;;;6.51;96.79;102513.66;10379260;28;20034;-71
2022/10/12 01:32:27;;;;;;;10.40;7.50;;;;;;;6.45;96.18;102506.09;10378613;28;20040;-70
2022/10/12 01:37:54;;;;;;;21.95;8.13;;;;;;;6.37;95.99;102503.19;10379551;28;20129;-71
2022/10/12 01:42:54;;;;;;;36.33;8.77;;;;;;;6.29;96.16;102501.16;10379308;28;20084;-70
2022/10/12 01:47:55;;;;;;;12.82;8.13;;;;;;;6.31;96.26;102492.09;10360956;28;20026;-71
2022/10/12 01:53:10;;;;;;;16.15;6.93;;;;;;;6.20;95.99;102491.19;10376982;28;20446;-71
2022/10/12 01:58:23;;;;;;;16.48;7.78;;;;;;;6.29;97.30;102476.09;10377202;28;20046;-71
2022/10/12 02:03:29;;;;;;;14.43;7.65;;;;;;;6.33;96.54;102479.38;10376705;28;20037;-71
2022/10/12 02:08:37;;;;;;;14.40;8.13;;;;;;;6.33;97.02;102482.06;10376235;28;20030;-71
2022/10/12 02:13:49;;;;;;;9.20;7.70;;;;;;;6.38;98.53;102474.44;10377145;28;20029;-71
2022/10/12 02:18:50;;;;;;;11.85;7.95;;;;;;;6.34;97.02;102468.47;10360780;28;20041;-71
2022/10/12 02:23:51;;;;;;;14.50;7.50;;;;;;;6.31;97.80;102468.75;10358953;28;20030;-72
2022/10/12 02:28:51;;;;;;;20.15;8.93;;;;;;;6.26;97.25;102460.22;10376940;28;20117;-72
2022/10/12 02:34:21;;;;;;;23.33;9.60;;;;;;;6.23;97.69;102460.47;10376867;28;20065;-71
2022/10/12 02:39:27;;;;;;;12.70;8.65;;;;;;;6.16;97.11;102457.47;10373642;28;20042;-71
2022/10/12 02:44:30;;;;;;;14.20;8.82;;;;;;;6.10;97.18;102460.69;10359515;28;20069;-71
2022/10/12 02:49:31;;;;;;;21.35;9.73;;;;;;;6.04;98.26;102448.59;10376267;28;20369;-71
2022/10/12 02:54:31;;;;;;;16.50;8.60;;;;;;;6.13;98.57;102443.44;10375058;28;20037;-72
2022/10/12 02:59:32;;;;;;;11.48;7.65;;;;;;;6.14;98.61;102440.59;10374543;28;20038;-71
2022/10/12 03:04:32;;;;;;;25.83;9.75;;;;;;;6.15;98.13;102447.66;10376137;28;20049;-71
2022/10/12 03:09:32;;;;;;;17.50;9.25;;;;;;;6.15;97.58;102442.28;10375465;28;20038;-72
2022/10/12 03:14:34;;;;;;;16.27;9.30;;;;;;;6.14;97.75;102440.59;10377279;28;20042;-72
2022/10/12 03:19:34;;;;;;;11.75;9.25;;;;;;;6.15;98.37;102431.53;10375395;28;20030;-71
2022/10/12 03:24:34;;;;;;;23.83;9.98;;;;;;;6.24;98.82;102433.44;10374514;28;20037;-71
2022/10/12 03:29:35;;;;;;;8.85;8.00;;;;;;;6.35;98.49;102437.03;10374401;28;20050;-72
2022/10/12 03:34:35;;;;;;;13.40;7.97;;;;;;;6.38;98.87;102431.41;10374778;28;20025;-71
2022/10/12 03:39:35;;;;;;;18.63;10.07;;;;;;;6.41;98.51;102444.59;10373392;28;20045;-71
2022/10/12 03:44:36;;;;;;;15.20;10.60;;;;;;;6.33;97.96;102442.56;10374510;28;20065;-72
2022/10/12 03:49:36;;;;;;;22.33;11.25;;;;;;;6.41;98.26;102447.28;10356689;28;20047;-72
2022/10/12 03:54:37;;;;;;;21.58;11.68;;;;;;;6.42;97.67;102439.09;10373878;28;20045;-72
2022/10/12 03:59:37;;;;;;;14.88;10.32;;;;;;;6.47;98.15;102444.91;10374532;28;20042;-72
2022/10/12 04:04:37;;;;;;;21.50;10.02;;;;;;;6.50;98.41;102443.78;10374355;28;20473;-71
2022/10/12 04:09:38;;;;;;;17.52;11.48;;;;;;;6.50;98.56;102441.09;10389223;28;20038;-71
2022/10/12 04:14:39;;;;;;;17.75;10.68;;;;;;;6.51;98.66;102438.28;10374707;28;20034;-71
2022/10/12 04:19:39;;;;;;;23.85;11.30;;;;;;;6.51;98.60;102432.06;10373932;28;20034;-73
2022/10/12 04:24:39;;;;;;;23.55;11.70;;;;;;;6.49;98.50;102434.03;10381595;28;20053;-72
2022/10/12 04:29:40;;;;;;;24.55;12.57;;;;;;;6.53;99.21;102430.06;10380459;28;20041;-71
2022/10/12 04:34:40;;;;;;;12.82;10.88;;;;;;;6.62;100.00;102418.50;10381070;28;20381;-72
2022/10/12 04:39:40;;;;;;;22.75;12.93;;;;;;;6.71;100.00;102424.94;10314400;28;20069;-73
2022/10/12 04:44:41;;;;;;;14.77;10.35;;;;;;;6.77;100.00;102412.78;10380257;28;20034;-72
2022/10/12 04:49:41;;;;;;;19.55;13.00;;;;;;;6.82;100.00;102407.81;10380214;28;20129;-73
2022/10/12 04:54:42;;;;;;;18.10;11.73;;;;;;;6.85;100.00;102408.41;10380280;28;20397;-75
2022/10/12 04:59:42;;;;;;;17.90;11.48;;;;;;;6.89;100.00;102403.59;10378807;28;20034;-73
2022/10/12 05:04:43;;;;;;;34.45;12.65;;;;;;;6.89;100.00;102404.47;10379134;28;20478;-71
2022/10/12 05:09:43;;;;;;;25.00;12.55;;;;;;;6.84;100.00;102406.69;10379408;28;20045;-71
2022/10/12 05:14:43;;;;;;;15.55;10.30;;;;;;;6.72;100.00;102410.47;10378826;28;20034;-71
2022/10/12 05:19:44;;;;;;;29.10;11.88;;;;;;;6.69;100.00;102408.91;10382796;28;20366;-71
2022/10/12 05:24:44;;;;;;;17.75;10.05;;;;;;;6.62;99.38;102404.19;10378403;28;20046;-71
2022/10/12 05:29:44;;;;;;;14.63;9.68;;;;;;;6.49;99.53;102410.66;10378856;28;20113;-71
2022/10/12 05:34:45;;;;;;;23.25;10.00;;;;;;;6.49;99.41;102407.13;10377549;28;20030;-71
2022/10/12 05:39:45;;;;;;;21.13;11.05;;;;;;;6.43;98.92;102403.09;10378291;28;20535;-71
2022/10/12 05:44:46;;;;;;;15.05;8.77;;;;;;;6.41;99.42;102401.53;10378501;28;20473;-71
2022/10/12 05:49:46;;;;;;;10.75;8.80;;;;;;;6.33;98.39;102406.75;10377341;28;20386;-71
2022/10/12 05:54:46;;;;;;;14.68;9.80;;;;;;;6.22;98.34;102405.84;10377447;28;20144;-71
2022/10/12 05:59:47;;;;;;;21.55;9.50;;;;;;;6.13;98.59;102405.78;10376649;28;20048;-71
2022/10/12 06:04:47;;;;;;;23.85;10.25;;;;;;;6.12;99.01;102410.28;10376919;28;20559;-71
2022/10/12 06:09:48;;;;;;;12.70;10.60;;;;;;;6.14;99.35;102396.72;10376537;28;20129;-71
2022/10/12 06:14:48;;;;;;;13.63;10.35;;;;;;;6.26;99.49;102396.50;10377830;28;20362;-71
2022/10/12 06:19:49;;;;;;;13.15;11.23;;;;;;;6.44;100.00;102390.50;10376365;28;20034;-71
2022/10/12 06:24:49;;;;;;;15.32;10.52;;;;;;;6.49;99.85;102393.66;10376886;28;20042;-71
2022/10/12 06:29:49;;;;;;;20.13;11.23;;;;;;;6.56;99.90;102400.19;10375195;28;20042;-71
2022/10/12 06:34:50;;;;;;;12.38;10.38;;;;;;;6.64;99.46;102392.31;10374790;28;20465;-71
2022/10/12 06:39:51;;;;;;;16.33;11.20;;;;;;;6.73;100.00;102386.13;10375938;28;20064;-71
2022/10/12 06:44:51;;;;;;;11.73;10.45;;;;;;;6.86;100.00;102385.88;10375555;28;20038;-71
2022/10/12 06:49:51;;;;;;;19.90;12.15;;;;;;;7.35;100.00;102394.91;10374216;28;20421;-72
2022/10/12 06:54:52;;;;;;;27.00;14.48;;;;;;;8.61;99.71;102388.53;10375952;28;20046;-72
2022/10/12 06:59:52;;;;;;;28.13;14.32;;;;;;;9.61;98.01;102387.69;10375882;28;20032;-72
2022/10/12 07:04:52;;;;;;;22.02;14.88;;;;;;;9.61;98.31;102379.56;10375239;28;20466;-71
2022/10/12 07:09:53;;;;;;;19.00;12.43;;;;;;;9.01;96.96;102385.50;10375290;28;20045;-71
2022/10/12 07:14:54;;;;;;;18.80;11.30;;;;;;;8.52;99.19;102379.50;10391061;28;20042;-72
2022/10/12 07:19:55;;;;;;;15.77;12.32;;;;;;;8.80;100.00;102382.19;10359299;28;20477;-72
2022/10/12 07:24:55;;;;;;;16.77;11.48;;;;;;;8.86;100.00;102376.22;10374951;28;20129;-72
2022/10/12 07:29:56;;;;;;;20.73;12.02;;;;;;;10.09;100.00;102380.13;10374479;28;20421;-72
2022/10/12 07:34:56;;;;;;;34.78;15.30;;;;;;;11.08;100.00;102388.63;10375817;28;20034;-72
2022/10/12 07:39:56;;;;;;;24.30;14.63;;;;;;;11.79;99.16;102381.81;10390547;28;20417;-72
2022/10/12 07:44:57;;;;;;;26.20;13.73;;;;;;;12.63;97.77;102379.66;10374022;28;20065;-72
2022/10/12 07:49:57;;;;;;;17.33;13.73;;;;;;;13.36;96.42;102380.38;10374808;28;20469;-72
2022/10/12 07:54:58;;;;;;;20.00;12.48;;;;;;;13.95;95.96;102375.19;10390643;28;20038;-72
2022/10/12 07:59:58;;;;;;;15.38;9.05;;;;;;;14.41;95.24;102392.25;10382236;28;20038;-73
2022/10/12 08:04:59;;;;;;;18.75;9.10;;;;;;;15.08;94.49;102393.19;10381028;28;20054;-72
2022/10/12 08:09:59;;;;;;;18.40;8.48;;;;;;;15.03;93.80;102387.50;10383129;28;20042;-72
2022/10/12 08:14:59;;;;;;;22.42;9.32;;;;;;;14.92;94.81;102396.16;10383340;28;20042;-72
2022/10/12 08:20:00;;;;;;;17.48;8.35;;;;;;;14.15;95.80;102400.84;10380751;28;20072;-72
2022/10/12 08:25:00;;;;;;;9.05;7.25;;;;;;;14.27;96.99;102390.38;10381570;28;20389;-72
2022/10/12 08:30:01;;;;;;;12.57;8.65;;;;;;;15.14;95.46;102384.25;10380677;28;20042;-72
2022/10/12 08:35:01;;;;;;;16.10;7.85;;;;;;;15.89;94.03;102399.38;10379372;28;20506;-72
2022/10/12 08:40:02;;;;;;;21.35;8.07;;;;;;;15.55;93.76;102403.63;10381644;28;20042;-72
2022/10/12 08:45:17;;;;;;;12.95;7.88;;;;;;;14.93;94.89;102376.84;10379062;28;20034;-72
2022/10/12 08:50:32;;;;;;;18.00;8.02;;;;;;;14.38;96.28;102373.53;10364111;28;20030;-72
2022/10/12 08:55:35;;;;;;;13.57;9.15;;;;;;;15.04;97.16;102378.25;10379777;28;20041;-72
2022/10/12 09:00:36;;;;;;;19.33;9.10;;;;;;;16.28;93.82;102373.41;10379488;28;20037;-72
2022/10/12 09:05:43;;;;;;;14.35;6.38;;;;;;;17.34;90.86;102384.91;10361332;28;20148;-72
2022/10/12 09:10:48;;;;;;;;;;;;;;;17.70;90.69;102389.19;10378247;28;20034;-73
2022/10/12 09:16:01;;;;;;;15.57;7.47;;;;;;;17.85;88.36;102383.53;10394708;28;19909;-72
2022/10/12 09:21:01;;;;;;;8.32;7.43;;;;;;;18.66;86.54;102394.22;10379702;28;20108;-73
2022/10/12 09:26:39;;;;;;;8.45;7.43;;;;;;;19.29;84.88;102393.59;10386125;28;20053;-73
2022/10/12 09:31:49;;;;;;;;;;;;;;;19.65;88.06;102386.63;10333054;28;20172;-73
2022/10/12 09:36:49;;;;;;;10.10;7.75;;;;;;;19.19;86.83;102380.34;10378554;28;19916;-73
2022/10/12 09:41:49;;;;;;;15.65;9.65;;;;;;;19.43;89.53;102381.47;10379061;28;20036;-73
2022/10/12 09:46:56;;;;;;;14.98;6.82;;;;;;;19.90;89.38;102370.16;10376880;28;20060;-73
2022/10/12 09:51:59;;;;;;;10.38;7.03;;;;;;;18.90;91.96;102357.03;10377673;28;20057;-73
2022/10/12 09:56:59;;;;;;;10.73;5.28;;;;;;;19.43;92.72;102351.25;10361075;28;20045;-73
2022/10/12 10:02:09;;;;;;;9.25;6.28;;;;;;;19.16;91.58;102323.09;10378644;28;20173;-72
2022/10/12 10:07:32;;;;;;;18.38;6.22;;;;;;;19.05;88.40;102315.56;10377444;28;20054;-72
2022/10/12 10:12:32;;;;;;;8.63;5.07;;;;;;;18.68;81.55;102293.31;10361923;28;20056;-73
2022/10/12 10:17:33;;;;;;;8.40;4.60;;;;;;;17.34;83.50;102291.81;10375421;28;20037;-73
2022/10/12 10:22:33;;;;;;;8.90;5.78;;;;;;;16.46;87.45;102286.25;10375491;28;20117;-72
2022/10/12 10:27:38;;;;;;;10.50;6.60;;;;;;;16.98;83.84;102288.59;10358239;28;20022;-72
2022/10/12 10:32:38;;;;;;;16.35;6.50;;;;;;;17.22;86.95;102273.47;10375232;28;20034;-72
2022/10/12 10:37:54;;;;;;;19.60;7.70;;;;;;;17.30;87.10;102268.63;10375455;28;20500;-72
2022/10/12 10:42:56;;;;;;;11.13;5.85;;;;;;;18.72;83.57;102267.16;10358696;28;20077;-72
2022/10/12 10:48:02;;;;;;;6.00;4.78;;;;;;;18.76;81.98;102278.53;10358490;28;20044;-72
2022/10/12 10:53:05;;;;;;;6.45;5.40;;;;;;;17.43;70.66;102279.59;10374001;28;20029;-72
2022/10/12 10:58:07;;;;;;;8.30;5.38;;;;;;;17.34;74.57;102269.06;10373514;28;20034;-72
2022/10/12 11:03:12;;;;;;;24.38;6.57;;;;;;;16.87;75.34;102273.59;10357851;28;20389;-72
2022/10/12 11:08:21;;;;;;;7.95;4.38;;;;;;;16.39;73.60;102266.22;10374925;28;20053;-72
2022/10/12 11:13:30;;;;;;;20.10;7.43;;;;;;;16.36;76.76;102255.69;10375052;28;20045;-72
2022/10/12 11:18:54;;;;;;;7.90;5.40;;;;;;;17.08;76.94;102269.88;10357888;28;20037;-72
2022/10/12 11:24:40;;;;;;;9.00;5.93;;;;;;;17.18;73.24;102262.91;10358231;28;20108;-72
2022/10/12 11:29:40;;;;;;;12.75;6.78;;;;;;;18.28;74.52;102255.09;10363389;28;20052;-72
2022/10/12 11:35:01;;;;;;;8.88;6.78;;;;;;;19.41;66.94;102248.16;10374632;28;20056;-72
2022/10/12 11:40:03;;;;;;;9.63;6.25;;;;;;;19.31;65.02;102248.66;10374891;28;20113;-72
2022/10/12 11:45:04;;;;;;;9.98;6.75;;;;;;;17.77;66.48;102220.22;10357577;28;20033;-72
2022/10/12 11:50:27;;;;;;;11.57;6.63;;;;;;;16.60;65.19;102234.34;10374319;28;20485;-72
2022/10/12 11:55:40;;;;;;;8.82;6.43;;;;;;;17.06;68.48;102247.31;10372250;28;20037;-72
2022/10/12 12:01:06;;;;;;;13.18;6.78;;;;;;;17.83;71.40;102226.72;10373688;28;20037;-72
2022/10/12 12:06:28;;;;;;;10.45;6.13;;;;;;;17.27;67.14;102235.38;10359349;28;20065;-72
2022/10/12 12:11:30;;;;;;;10.75;7.22;;;;;;;16.77;66.88;102230.22;10373013;28;20578;-72
2022/10/12 12:16:31;;;;;;;12.55;6.05;;;;;;;16.25;68.19;102237.97;10372775;28;20041;-72
2022/10/12 12:22:00;;;;;;;20.70;7.55;;;;;;;15.99;67.93;102237.84;10339432;28;20034;-72
2022/10/12 12:27:00;;;;;;;13.18;6.72;;;;;;;15.93;73.71;102233.16;10372231;28;20037;-72
2022/10/12 12:32:01;;;;;;;20.05;6.78;;;;;;;15.98;75.97;102230.66;10355782;28;20029;-72
2022/10/12 12:37:09;;;;;;;14.88;6.78;;;;;;;16.04;72.51;102219.78;10356472;28;20085;-72
2022/10/12 12:42:10;;;;;;;17.15;8.55;;;;;;;16.17;75.16;102215.41;10358603;28;20026;-72
2022/10/12 12:47:11;;;;;;;17.20;7.97;;;;;;;17.14;75.53;102208.81;10363437;28;20050;-72
2022/10/12 12:52:31;;;;;;;7.82;6.10;;;;;;;17.79;71.52;102201.63;10380496;28;20080;-72
2022/10/12 12:58:00;;;;;;;11.77;6.20;;;;;;;18.35;74.00;102191.97;10379924;28;20099;-72
2022/10/12 13:03:34;;;;;;;9.80;6.07;;;;;;;18.45;72.48;102183.28;10374017;28;20116;-72
2022/10/12 13:08:59;;;;;;;9.40;5.75;;;;;;;19.01;73.73;102196.25;10378695;28;20092;-72
2022/10/12 13:14:11;;;;;;;7.20;4.72;;;;;;;18.22;72.00;102190.13;10362498;28;20033;-72
2022/10/12 13:19:12;;;;;;;13.85;5.53;;;;;;;18.51;74.78;102188.75;10379427;28;20045;-72
2022/10/12 13:24:15;;;;;;;11.82;7.78;;;;;;;18.87;76.42;102197.44;10377734;28;20061;-72
2022/10/12 13:29:41;;;;;;;13.07;6.90;;;;;;;18.65;75.51;102191.41;10379855;28;20034;-72
2022/10/12 13:34:42;;;;;;;10.45;6.05;;;;;;;18.17;78.49;102181.72;10377517;28;20064;-72
2022/10/12 13:39:45;;;;;;;7.50;6.28;;;;;;;17.26;73.55;102157.88;10360456;28;20025;-73
2022/10/12 13:44:46;;;;;;;8.90;6.60;;;;;;;16.55;76.97;102155.63;10376925;28;20034;-72
2022/10/12 13:49:46;;;;;;;12.27;6.30;;;;;;;16.51;75.63;102157.09;10360561;28;20462;-72
2022/10/12 13:54:47;;;;;;;13.57;6.32;;;;;;;17.49;75.32;102132.78;10376203;28;20518;-72
2022/10/12 14:00:00;;;;;;;7.05;6.15;;;;;;;17.52;67.45;102123.28;10377009;28;20065;-72
2022/10/12 14:05:04;;;;;;;7.88;5.85;;;;;;;17.84;71.20;102122.38;10378203;28;20060;-72
2022/10/12 14:10:20;;;;;;;12.25;5.70;;;;;;;18.31;72.60;102100.22;10376875;28;20033;-72
2022/10/12 14:15:21;;;;;;;14.10;6.63;;;;;;;18.36;67.17;102101.25;10361334;28;20046;-72
2022/10/12 14:20:36;;;;;;;10.63;6.53;;;;;;;18.13;71.14;102092.75;10360369;28;20137;-72
2022/10/12 14:25:37;;;;;;;12.48;4.88;;;;;;;18.04;70.92;102083.09;10374907;28;20482;-72
2022/10/12 14:30:48;;;;;;;8.20;5.32;;;;;;;17.50;66.40;102081.56;10359101;28;20033;-72
2022/10/12 14:35:49;;;;;;;12.65;6.45;;;;;;;17.31;71.13;102073.19;10375334;28;20112;-72
2022/10/12 14:40:50;;;;;;;7.65;5.18;;;;;;;17.77;72.94;102069.50;10358471;28;20368;-72
2022/10/12 14:45:50;;;;;;;9.13;4.45;;;;;;;17.40;70.01;102076.53;10375733;28;20026;-72
2022/10/12 14:50:51;;;;;;;14.60;5.22;;;;;;;16.89;72.21;102088.19;10374347;28;20113;-72
2022/10/12 14:55:51;;;;;;;8.90;4.72;;;;;;;16.02;70.20;102079.81;10375450;28;20478;-72
2022/10/12 15:00:51;;;;;;;15.88;5.10;;;;;;;15.39;70.86;102079.03;10374120;28;20393;-72
2022/10/12 15:05:52;;;;;;;15.73;7.03;;;;;;;15.05;71.27;102082.56;10373790;28;20077;-72
2022/10/12 15:10:52;;;;;;;8.10;5.72;;;;;;;14.85;72.86;102090.59;10374892;28;20030;-72
2022/10/12 15:15:53;;;;;;;13.68;6.88;;;;;;;14.55;72.64;102101.66;10373785;28;20121;-71
2022/10/12 15:20:56;;;;;;;23.85;8.45;;;;;;;14.40;73.28;102095.41;10375265;28;20040;-71
2022/10/12 15:25:59;;;;;;;14.35;7.65;;;;;;;14.16;74.15;102096.56;10375480;28;20033;-71
2022/10/12 15:31:03;;;;;;;14.98;8.60;;;;;;;13.97;74.74;102068.06;10374568;28;20037;-72
2022/10/12 15:36:03;;;;;;;17.45;8.73;;;;;;;13.80;75.81;102077.50;10374305;28;20038;-71
2022/10/12 15:41:03;;;;;;;18.67;11.25;;;;;;;13.65;76.30;102075.63;10373057;28;20041;-72
2022/10/12 15:46:04;;;;;;;35.70;11.88;;;;;;;13.53;76.87;102079.03;10373107;28;20536;-71
2022/10/12 15:51:12;;;;;;;19.48;9.40;;;;;;;13.30;76.70;102076.41;10373118;28;20041;-72
2022/10/12 15:56:13;;;;;;;19.25;9.25;;;;;;;13.16;77.18;102080.78;10373161;28;20032;-71
2022/10/12 16:01:15;;;;;;;33.22;10.68;;;;;;;13.02;77.99;102072.41;10373783;28;20466;-72
2022/10/12 16:06:16;;;;;;;14.68;10.52;;;;;;;12.90;77.85;102056.72;10373426;28;20058;-71
2022/10/12 16:11:16;;;;;;;16.63;10.18;;;;;;;12.83;78.19;102069.34;10374310;28;20116;-71
2022/10/12 16:16:16;;;;;;;29.27;11.95;;;;;;;12.84;78.39;102066.47;10375875;28;20038;-71
2022/10/12 16:21:17;;;;;;;21.38;12.10;;;;;;;12.92;78.94;102049.22;10381451;28;20099;-72
2022/10/12 16:26:17;;;;;;;31.80;12.32;;;;;;;13.06;79.35;102039.41;10395998;28;20045;-72
2022/10/12 16:31:18;;;;;;;25.25;11.15;;;;;;;13.21;78.96;102059.31;10381795;28;20523;-71
2022/10/12 16:36:18;;;;;;;25.77;11.63;;;;;;;13.27;78.99;102053.13;10379648;28;20092;-71
2022/10/12 16:41:18;;;;;;;14.75;10.35;;;;;;;13.22;79.33;102055.53;10380820;28;20030;-71
2022/10/12 16:46:19;;;;;;;20.50;11.23;;;;;;;13.00;79.39;102044.53;10379147;28;20059;-71
2022/10/12 16:51:19;;;;;;;18.70;10.30;;;;;;;12.84;79.90;102044.72;10380710;28;20432;-71
2022/10/12 16:56:20;;;;;;;18.63;10.88;;;;;;;12.75;79.74;102045.81;10380047;28;20069;-71
2022/10/12 17:01:20;;;;;;;23.20;11.77;;;;;;;12.67;79.86;102056.78;10380020;28;20057;-71
2022/10/12 17:06:20;;;;;;;19.77;11.63;;;;;;;12.65;80.26;102056.94;10380065;28;20077;-71
2022/10/12 17:11:21;;;;;;;37.08;11.13;;;;;;;12.68;80.32;102053.03;10379132;28;20050;-71
2022/10/12 17:16:56;;;;;;;28.20;10.30;;;;;;;12.67;80.38;102054.06;10377693;28;20033;-72
2022/10/12 17:21:48;;;;;;;28.80;11.60;;;;;;;12.70;81.06;102054.53;10380286;28;20129;-71
2022/10/12 17:26:48;;;;;;;19.02;10.95;;;;;;;12.70;80.94;102062.69;10395018;28;20022;-72
2022/10/12 17:31:49;;;;;;;18.35;10.32;;;;;;;12.69;81.32;102055.53;10394216;28;20036;-71
2022/10/12 17:36:50;;;;;;;23.20;9.85;;;;;;;12.70;81.02;102059.09;10361166;28;20034;-71
2022/10/12 17:41:50;;;;;;;17.70;10.25;;;;;;;12.64;80.86;102049.00;10377823;28;20041;-72
2022/10/12 17:46:51;;;;;;;36.20;12.45;;;;;;;12.50;81.35;102042.47;10378357;28;20354;-71
2022/10/12 17:51:51;;;;;;;20.08;12.40;;;;;;;12.34;81.05;102033.41;10393810;28;20033;-71
2022/10/12 17:56:54;;;;;;;28.85;13.35;;;;;;;12.16;81.24;102029.31;10379274;28;20172;-71
2022/10/12 18:01:55;;;;;;;29.02;11.60;;;;;;;11.98;81.47;102030.44;10378164;28;20485;-71
2022/10/12 18:06:55;;;;;;;20.90;11.20;;;;;;;11.86;81.74;102021.84;10375382;28;20096;-72
2022/10/12 18:11:56;;;;;;;18.55;11.68;;;;;;;11.70;81.71;102032.75;10377675;28;20049;-72
2022/10/12 18:16:57;;;;;;;26.17;12.02;;;;;;;11.60;82.23;102022.13;10376522;28;20034;-71
2022/10/12 18:21:57;;;;;;;15.43;10.50;;;;;;;11.45;82.15;102014.91;10377202;28;20096;-72
2022/10/12 18:26:58;;;;;;;20.67;12.43;;;;;;;11.26;82.51;102017.00;10377791;28;20476;-71
2022/10/12 18:31:59;;;;;;;22.25;10.52;;;;;;;11.07;82.46;102006.56;10377205;28;20046;-71
2022/10/12 18:37:00;;;;;;;34.00;11.32;;;;;;;10.90;82.79;102016.59;10375657;28;20034;-71
2022/10/12 18:42:00;;;;;;;35.05;12.60;;;;;;;10.75;83.01;102010.19;10378123;28;20038;-71
2022/10/12 18:47:01;;;;;;;14.77;11.13;;;;;;;10.73;83.59;102010.38;10359514;28;20049;-71
2022/10/12 18:52:01;;;;;;;28.02;12.75;;;;;;;10.72;83.44;102019.53;10376676;28;20042;-71
2022/10/12 18:57:01;;;;;;;20.60;13.13;;;;;;;10.68;83.89;102013.56;10375656;28;20030;-71
2022/10/12 19:02:02;;;;;;;19.10;10.40;;;;;;;10.73;83.88;102004.94;10374975;28;20034;-71
2022/10/12 19:07:02;;;;;;;20.67;11.85;;;;;;;10.73;83.78;102004.13;10376727;28;20061;-71
2022/10/12 19:12:03;;;;;;;17.42;11.10;;;;;;;10.71;84.33;102001.56;10376194;28;20069;-71
2022/10/12 19:17:03;;;;;;;17.08;11.50;;;;;;;10.73;84.58;101994.13;10373846;28;20026;-71
2022/10/12 19:22:03;;;;;;;21.83;11.57;;;;;;;10.73;83.98;101993.28;10374310;28;20049;-72
2022/10/12 19:27:04;;;;;;;21.25;12.13;;;;;;;10.60;84.03;101996.50;10391450;28;20073;-71
2022/10/12 19:32:04;;;;;;;25.25;13.02;;;;;;;10.50;84.55;101990.41;10373382;28;20042;-72
2022/10/12 19:37:05;;;;;;;31.33;14.38;;;;;;;10.40;84.66;101983.31;10376117;28;20137;-71
2022/10/12 19:42:05;;;;;;;22.40;15.10;;;;;;;10.33;85.27;101981.44;10392138;28;20462;-71
2022/10/12 19:47:05;;;;;;;16.35;11.55;;;;;;;10.35;86.29;101985.69;10374483;28;20073;-71
2022/10/12 19:52:06;;;;;;;19.90;12.32;;;;;;;10.34;85.45;101988.53;10376605;28;20394;-70
2022/10/12 19:57:06;;;;;;;25.45;11.25;;;;;;;10.35;86.21;101985.69;10382899;28;20072;-71
2022/10/12 20:02:09;;;;;;;24.77;11.30;;;;;;;10.44;85.92;101979.25;10383593;28;20083;-70
2022/10/12 20:07:11;;;;;;;26.10;14.02;;;;;;;10.50;86.53;101972.31;10383152;28;20124;-70
2022/10/12 20:12:11;;;;;;;27.05;14.23;;;;;;;10.57;86.43;101980.59;10382109;28;20529;-70
2022/10/12 20:17:12;;;;;;;20.00;12.43;;;;;;;10.57;nan;101977.88;10381823;28;20129;-71
2022/10/12 20:22:12;;;;;;;25.38;13.18;;;;;;;10.55;86.61;101977.19;10381732;28;20038;-70
2022/10/12 20:27:12;;;;;;;23.90;13.23;;;;;;;10.64;87.08;101976.19;10381020;28;20057;-71
2022/10/12 20:32:13;;;;;;;20.63;13.00;;;;;;;10.72;87.12;101968.06;10381170;28;20042;-70
2022/10/12 20:37:15;;;;;;;32.13;12.15;;;;;;;10.76;87.12;101961.25;10381615;28;20041;-71
2022/10/12 20:42:16;;;;;;;20.73;11.65;;;;;;;10.77;86.86;101952.09;10380831;28;20038;-71
2022/10/12 20:47:16;;;;;;;22.90;11.20;;;;;;;10.81;87.07;101941.75;10380930;28;20037;-71
2022/10/12 20:52:17;;;;;;;25.45;12.48;;;;;;;10.81;87.13;101947.19;10381895;28;20026;-71
2022/10/12 20:57:17;;;;;;;19.13;10.85;;;;;;;10.67;86.51;101946.03;10381944;28;20053;-71
2022/10/12 21:02:18;;;;;;;28.52;11.45;;;;;;;10.54;86.98;101940.31;10380730;28;20125;-71
2022/10/12 21:07:18;;;;;;;15.60;9.70;;;;;;;10.48;87.65;101934.56;10380274;28;20046;-71
2022/10/12 21:12:18;;;;;;;23.25;9.93;;;;;;;10.55;88.08;101921.16;10379195;28;20490;-71
2022/10/12 21:17:19;;;;;;;18.27;10.38;;;;;;;10.64;88.42;101916.59;10379671;28;20122;-71
2022/10/12 21:22:19;;;;;;;15.50;8.63;;;;;;;10.74;88.54;101916.38;10380148;28;20385;-72
2022/10/12 21:27:20;;;;;;;20.33;10.65;;;;;;;10.81;88.40;101915.50;10362228;28;20042;-71
2022/10/12 21:32:20;;;;;;;20.70;9.95;;;;;;;10.91;88.51;101909.88;10380018;28;20038;-71
2022/10/12 21:37:20;;;;;;;19.45;8.38;;;;;;;11.04;88.84;101912.03;10377428;28;20034;-71
2022/10/12 21:42:21;;;;;;;18.50;8.75;;;;;;;11.13;89.13;101908.28;10378009;28;20374;-71
2022/10/12 21:47:21;;;;;;;16.75;8.32;;;;;;;11.18;88.73;101904.03;10378642;28;20038;-71
2022/10/12 21:52:22;;;;;;;16.30;8.25;;;;;;;11.28;88.79;101908.38;10377984;28;20406;-71
2022/10/12 21:57:22;;;;;;;13.02;7.28;;;;;;;11.35;88.90;101896.63;10379428;28;20029;-71
2022/10/12 22:02:22;;;;;;;11.27;7.53;;;;;;;11.43;89.35;101892.22;10360454;28;20096;-71
2022/10/12 22:07:23;;;;;;;10.18;7.03;;;;;;;11.48;88.99;101897.91;10377940;28;20045;-71
2022/10/12 22:12:23;;;;;;;40.05;9.23;;;;;;;11.47;88.89;101899.78;10378469;28;20033;-72
2022/10/12 22:17:23;;;;;;;27.90;8.57;;;;;;;11.52;89.80;101901.94;10377540;28;20367;-72
2022/10/12 22:22:24;;;;;;;12.98;6.65;;;;;;;11.60;90.03;101904.63;10377669;28;20034;-71
2022/10/12 22:27:24;;;;;;;11.93;7.32;;;;;;;11.67;91.34;101911.03;10378558;28;20034;-71
2022/10/12 22:32:25;;;;;;;14.88;7.55;;;;;;;11.76;91.07;101900.97;10378944;28;20065;-71
2022/10/12 22:37:26;;;;;;;18.33;8.45;;;;;;;11.85;90.86;101889.06;10376793;28;20037;-71
2022/10/12 22:42:26;;;;;;;21.60;8.60;;;;;;;11.91;91.49;101873.91;10375700;28;20037;-71
2022/10/12 22:47:26;;;;;;;16.00;7.82;;;;;;;11.96;91.44;101876.91;10377223;28;20175;-71
2022/10/12 22:52:27;;;;;;;15.55;7.03;;;;;;;11.97;91.31;101873.19;10376300;28;20038;-71
2022/10/12 22:57:28;;;;;;;11.73;7.35;;;;;;;12.01;91.14;101879.94;10376071;28;20038;-71